createdAt,value
2023-01-06T00:00:36.334Z,2.47
2023-01-06T00:03:04.090Z,2.10
2023-01-06T00:05:31.752Z,2.47
2023-01-06T00:07:59.497Z,2.30
2023-01-06T00:10:26.665Z,2.13
2023-01-06T00:12:54.249Z,2.70
2023-01-06T00:15:21.397Z,2.40
2023-01-06T00:17:48.652Z,2.23
2023-01-06T00:20:15.834Z,2.40
2023-01-06T00:22:43.368Z,2.50
2023-01-06T00:25:10.987Z,2.30
2023-01-06T00:27:39.103Z,2.10
2023-01-06T00:30:07.241Z,2.20
2023-01-06T00:32:34.794Z,2.50
2023-01-06T00:35:02.004Z,2.60
2023-01-06T00:37:29.229Z,2.17
2023-01-06T00:39:56.418Z,2.03
2023-01-06T00:42:24.840Z,2.30
2023-01-06T00:44:52.510Z,2.40
2023-01-06T00:47:20.064Z,2.60
2023-01-06T00:49:47.683Z,2.37
2023-01-06T00:52:15.413Z,2.50
2023-01-06T00:54:43.208Z,2.37
2023-01-06T00:57:10.432Z,2.50
2023-01-06T00:59:37.813Z,2.37
2023-01-06T01:02:05.202Z,2.40
2023-01-06T01:04:32.452Z,2.30
2023-01-06T01:07:00.534Z,2.57
2023-01-06T01:09:29.789Z,2.23
2023-01-06T01:12:09.862Z,2.63
2023-01-06T01:14:41.521Z,2.60
2023-01-06T01:17:09.157Z,2.20
2023-01-06T01:19:36.620Z,2.37
2023-01-06T01:22:04.075Z,2.53
2023-01-06T01:24:31.280Z,2.30
2023-01-06T01:26:58.462Z,2.60
2023-01-06T01:29:25.782Z,2.43
2023-01-06T01:31:53.309Z,2.20
2023-01-06T01:34:20.860Z,2.23
2023-01-06T01:36:48.629Z,2.60
2023-01-06T01:39:17.103Z,2.20
2023-01-06T01:41:44.337Z,2.23
2023-01-06T01:44:30.387Z,2.63
2023-01-06T01:46:57.561Z,2.27
2023-01-06T01:49:26.912Z,2.37
2023-01-06T01:51:54.965Z,2.57
2023-01-06T01:54:32.985Z,2.37
2023-01-06T01:57:02.194Z,2.00
2023-01-06T01:59:30.571Z,2.43
2023-01-06T02:01:57.975Z,2.20
2023-01-06T02:04:26.587Z,2.40
2023-01-06T02:06:54.068Z,2.33
2023-01-06T02:09:24.232Z,2.10
2023-01-06T02:11:52.231Z,2.30
2023-01-06T02:14:23.355Z,2.50
2023-01-06T02:16:53.543Z,2.37
2023-01-06T02:19:35.981Z,2.10
2023-01-06T02:22:15.360Z,2.23
2023-01-06T02:24:55.740Z,2.20
2023-01-06T02:27:43.099Z,2.67
2023-01-06T02:30:10.216Z,2.40
2023-01-06T02:32:52.573Z,2.40
2023-01-06T02:35:38.628Z,2.73
2023-01-06T02:38:15.012Z,2.37
2023-01-06T02:40:58.153Z,2.87
2023-01-06T02:43:51.605Z,2.87
2023-01-06T02:46:33.132Z,2.40
2023-01-06T02:49:26.726Z,2.23
2023-01-06T02:51:53.856Z,2.50
2023-01-06T02:54:30.196Z,2.40
2023-01-06T02:57:19.247Z,2.27
2023-01-06T02:59:50.867Z,2.23
2023-01-06T03:02:19.755Z,2.23
2023-01-06T03:04:48.095Z,2.40
2023-01-06T03:07:16.328Z,2.37
2023-01-06T03:09:44.438Z,2.47
2023-01-06T03:12:21.301Z,2.53
2023-01-06T03:14:51.703Z,2.70
2023-01-06T03:17:18.875Z,2.60
2023-01-06T03:19:46.440Z,2.20
2023-01-06T03:22:14.059Z,2.37
2023-01-06T03:24:41.404Z,2.57
2023-01-06T03:27:09.338Z,2.27
2023-01-06T03:29:37.179Z,2.33
2023-01-06T03:32:09.467Z,2.37
2023-01-06T03:34:58.029Z,2.40
2023-01-06T03:37:31.316Z,2.40
2023-01-06T03:40:15.301Z,2.47
2023-01-06T03:43:09.856Z,2.50
2023-01-06T03:45:52.907Z,2.30
2023-01-06T03:48:26.551Z,2.40
2023-01-06T03:50:56.415Z,2.50
2023-01-06T03:53:35.688Z,2.27
2023-01-06T03:56:09.827Z,2.37
2023-01-06T03:58:38.401Z,2.40
2023-01-06T04:01:06.640Z,2.33
2023-01-06T04:03:34.134Z,2.60
2023-01-06T04:06:01.313Z,2.30
2023-01-06T04:08:28.556Z,2.50
2023-01-06T04:10:55.703Z,2.30
2023-01-06T04:13:22.906Z,2.40
2023-01-06T04:15:50.259Z,2.30
2023-01-06T04:18:17.409Z,2.37
2023-01-06T04:20:44.569Z,2.50
2023-01-06T04:23:11.751Z,2.57
2023-01-06T04:25:39.085Z,2.57
2023-01-06T04:28:06.886Z,2.50
2023-01-06T04:30:34.007Z,2.57
2023-01-06T04:33:01.344Z,2.63
2023-01-06T04:35:28.529Z,2.60
2023-01-06T04:37:55.671Z,2.80
2023-01-06T04:40:22.903Z,2.40
2023-01-06T04:43:04.977Z,2.80
2023-01-06T04:45:32.485Z,2.30
2023-01-06T04:47:59.685Z,2.50
2023-01-06T04:50:26.931Z,2.47
2023-01-06T04:52:54.075Z,2.40
2023-01-06T04:55:21.303Z,2.77
2023-01-06T04:57:48.504Z,2.77
2023-01-06T05:00:15.883Z,2.57
2023-01-06T05:02:43.286Z,2.47
2023-01-06T05:05:10.831Z,2.67
2023-01-06T05:07:38.033Z,2.73
2023-01-06T05:10:05.877Z,2.53
2023-01-06T05:12:33.588Z,2.67
2023-01-06T05:15:00.722Z,2.67
2023-01-06T05:17:27.963Z,2.63
2023-01-06T05:19:55.159Z,2.80
2023-01-06T05:22:22.315Z,2.60
2023-01-06T05:24:49.464Z,2.80
2023-01-06T05:27:16.608Z,2.47
2023-01-06T05:29:43.793Z,2.80
2023-01-06T05:32:10.968Z,2.57
2023-01-06T05:34:38.096Z,2.93
2023-01-06T05:37:05.464Z,2.70
2023-01-06T05:39:32.608Z,2.60
2023-01-06T05:41:59.756Z,2.60
2023-01-06T05:44:26.864Z,2.57
2023-01-06T05:46:54.014Z,2.77
2023-01-06T05:49:21.149Z,2.80
2023-01-06T05:51:48.664Z,2.80
2023-01-06T05:54:15.811Z,2.87
2023-01-06T05:56:42.980Z,2.60
2023-01-06T05:59:10.235Z,2.70
2023-01-06T06:01:37.487Z,2.40
2023-01-06T06:04:04.790Z,2.70
2023-01-06T06:06:32.065Z,2.40
2023-01-06T06:08:59.405Z,2.70
2023-01-06T06:11:26.782Z,2.20
2023-01-06T06:13:55.127Z,2.60
2023-01-06T06:16:27.338Z,2.67
2023-01-06T06:18:55.529Z,3.23
2023-01-06T06:21:23.704Z,2.60
2023-01-06T06:23:52.719Z,2.30
2023-01-06T06:26:19.880Z,2.90
2023-01-06T06:28:47.148Z,3.03
2023-01-06T06:31:22.805Z,2.60
2023-01-06T06:33:53.561Z,2.40
2023-01-06T06:36:21.172Z,2.70
2023-01-06T06:38:49.610Z,2.67
2023-01-06T06:41:17.146Z,2.43
2023-01-06T06:43:44.327Z,3.00
2023-01-06T06:46:12.065Z,2.67
2023-01-06T06:48:39.721Z,2.47
2023-01-06T06:51:08.156Z,3.33
2023-01-06T06:53:35.468Z,2.70
2023-01-06T06:56:02.913Z,2.67
2023-01-06T06:58:30.235Z,2.90
2023-01-06T07:00:57.463Z,2.50
2023-01-06T07:03:25.318Z,2.60
2023-01-06T07:05:53.154Z,2.67
2023-01-06T07:08:20.782Z,2.90
2023-01-06T07:10:48.016Z,2.43
2023-01-06T07:13:15.157Z,2.43
2023-01-06T07:15:42.346Z,2.67
2023-01-06T07:18:09.607Z,2.63
2023-01-06T07:20:37.539Z,2.53
2023-01-06T07:23:05.281Z,2.57
2023-01-06T07:25:32.452Z,2.60
2023-01-06T07:28:00.927Z,2.47
2023-01-06T07:30:28.369Z,2.90
2023-01-06T07:32:55.564Z,2.50
2023-01-06T07:35:22.687Z,2.70
2023-01-06T07:37:49.870Z,2.97
2023-01-06T07:40:17.771Z,2.90
2023-01-06T07:42:45.300Z,2.50
2023-01-06T07:45:12.845Z,2.70
2023-01-06T07:47:40.061Z,2.67
2023-01-06T07:50:07.379Z,2.57
2023-01-06T07:52:34.500Z,2.43
2023-01-06T07:55:01.653Z,2.57
2023-01-06T07:57:29.887Z,2.53
2023-01-06T07:59:57.350Z,2.80
2023-01-06T08:02:24.634Z,2.63
2023-01-06T08:04:51.815Z,2.60
2023-01-06T08:07:19.105Z,2.40
2023-01-06T08:09:46.331Z,2.83
2023-01-06T08:12:13.527Z,3.00
2023-01-06T08:14:40.749Z,2.67
2023-01-06T08:17:07.908Z,3.10
2023-01-06T08:19:35.069Z,2.73
2023-01-06T08:22:02.524Z,2.90
2023-01-06T08:24:32.777Z,2.93
2023-01-06T08:26:59.975Z,2.83
2023-01-06T08:29:27.199Z,3.00
2023-01-06T08:32:02.217Z,2.77
2023-01-06T08:34:36.650Z,3.20
2023-01-06T08:37:03.947Z,2.70
2023-01-06T08:39:31.115Z,2.87
2023-01-06T08:41:58.453Z,2.37
2023-01-06T08:44:25.603Z,2.60
2023-01-06T08:46:52.747Z,2.80
2023-01-06T08:49:19.929Z,3.00
2023-01-06T08:51:47.069Z,2.40
2023-01-06T08:54:14.619Z,2.80
2023-01-06T08:56:43.529Z,2.70
2023-01-06T08:59:13.200Z,3.07
2023-01-06T09:01:40.438Z,2.70
2023-01-06T09:04:08.549Z,2.87
2023-01-06T09:06:36.206Z,2.83
2023-01-06T09:09:04.387Z,3.40
2023-01-06T09:11:31.593Z,2.83
2023-01-06T09:13:58.745Z,3.20
2023-01-06T09:16:25.900Z,2.87
2023-01-06T09:18:53.395Z,3.10
2023-01-06T09:21:21.853Z,2.57
2023-01-06T09:23:49.491Z,2.50
2023-01-06T09:26:17.653Z,2.83
2023-01-06T09:28:44.821Z,2.83
2023-01-06T09:31:12.103Z,2.90
2023-01-06T09:33:39.622Z,2.73
2023-01-06T09:36:07.169Z,3.00
2023-01-06T09:38:34.343Z,2.43
2023-01-06T09:41:07.843Z,2.53
2023-01-06T09:43:47.848Z,2.80
2023-01-06T09:46:16.805Z,2.30
2023-01-06T09:48:47.248Z,3.17
2023-01-06T09:51:19.408Z,2.90
2023-01-06T09:53:50.242Z,3.03
2023-01-06T09:56:19.843Z,2.70
2023-01-06T09:58:51.269Z,2.87
2023-01-06T10:01:21.325Z,2.57
2023-01-06T10:03:48.824Z,2.60
2023-01-06T10:06:26.298Z,2.90
2023-01-06T10:08:53.474Z,2.80
2023-01-06T10:11:32.703Z,2.67
2023-01-06T10:14:18.590Z,2.43
2023-01-06T10:17:04.148Z,2.77
2023-01-06T10:19:31.297Z,2.57
2023-01-06T10:21:58.746Z,3.10
2023-01-06T10:24:41.943Z,2.77
2023-01-06T10:27:18.557Z,2.80
2023-01-06T10:29:45.721Z,2.67
2023-01-06T10:32:16.566Z,2.90
2023-01-06T10:34:45.623Z,2.83
2023-01-06T10:37:15.446Z,3.00
2023-01-06T10:39:44.368Z,2.60
2023-01-06T10:42:42.428Z,3.20
2023-01-06T10:45:15.713Z,3.10
2023-01-06T10:47:44.142Z,2.77
2023-01-06T10:50:18.249Z,2.50
2023-01-06T10:52:46.244Z,2.83
2023-01-06T10:55:25.709Z,2.90
2023-01-06T10:57:54.626Z,2.63
2023-01-06T11:00:25.829Z,2.70
2023-01-06T11:02:57.773Z,2.20
2023-01-06T11:05:32.906Z,2.83
2023-01-06T11:08:02.994Z,2.53
2023-01-06T11:10:59.698Z,2.70
2023-01-06T11:13:26.867Z,2.80
2023-01-06T11:15:55.109Z,2.70
2023-01-06T11:18:27.309Z,3.07
2023-01-06T11:21:06.870Z,3.10
2023-01-06T11:23:34.387Z,2.90
2023-01-06T11:26:03.075Z,2.90
2023-01-06T11:28:30.766Z,3.27
2023-01-06T11:31:03.067Z,3.07
2023-01-06T11:33:32.365Z,2.47
2023-01-06T11:36:04.027Z,2.53
2023-01-06T11:38:31.236Z,2.70
2023-01-06T11:40:58.438Z,2.87
2023-01-06T11:43:30.739Z,2.50
2023-01-06T11:45:57.979Z,2.57
2023-01-06T11:48:30.954Z,2.57
2023-01-06T11:50:59.702Z,2.43
2023-01-06T11:53:29.285Z,2.70
2023-01-06T11:56:07.809Z,2.10
2023-01-06T11:58:40.815Z,1.97
2023-01-06T12:01:26.577Z,1.80
2023-01-06T12:03:55.564Z,2.30
2023-01-06T12:06:34.654Z,2.50
2023-01-06T12:09:03.627Z,2.00
2023-01-06T12:11:51.098Z,2.27
2023-01-06T12:14:27.826Z,2.60
2023-01-06T12:17:14.680Z,2.10
2023-01-06T12:19:46.261Z,2.10
2023-01-06T12:22:19.507Z,2.23
2023-01-06T12:24:48.067Z,2.00
2023-01-06T12:27:21.008Z,2.10
2023-01-06T12:29:49.166Z,2.10
2023-01-06T12:32:22.152Z,2.20
2023-01-06T12:34:51.729Z,2.40
2023-01-06T12:37:21.720Z,2.40
2023-01-06T12:39:58.160Z,2.20
2023-01-06T12:42:43.735Z,1.97
2023-01-06T12:45:20.041Z,1.80
2023-01-06T12:47:50.640Z,2.10
2023-01-06T12:50:17.774Z,2.20
2023-01-06T12:52:50.959Z,1.80
2023-01-06T12:55:21.961Z,2.20
2023-01-06T12:57:58.965Z,1.90
2023-01-06T13:00:34.849Z,1.90
2023-01-06T13:03:24.869Z,1.67
2023-01-06T13:05:52.817Z,1.73
2023-01-06T13:08:31.091Z,1.87
2023-01-06T13:11:13.404Z,1.80
2023-01-06T13:13:59.604Z,1.67
2023-01-06T13:16:29.805Z,1.50
2023-01-06T13:19:15.412Z,1.83
2023-01-06T13:21:43.647Z,1.77
2023-01-06T13:24:29.737Z,1.80
2023-01-06T13:27:12.237Z,1.73
2023-01-06T13:29:58.032Z,1.40
2023-01-06T13:32:25.157Z,1.70
2023-01-06T13:35:01.483Z,1.70
2023-01-06T13:37:28.660Z,1.90
2023-01-06T13:39:58.038Z,1.80
2023-01-06T13:42:47.632Z,1.90
2023-01-06T13:45:27.283Z,1.67
2023-01-06T13:47:55.261Z,1.60
2023-01-06T13:50:22.668Z,1.50
2023-01-06T13:52:49.968Z,1.53
2023-01-06T13:55:20.114Z,1.97
2023-01-06T13:57:47.241Z,1.70
2023-01-06T14:00:27.470Z,1.60
2023-01-06T14:02:54.664Z,1.60
2023-01-06T14:05:21.902Z,1.50
2023-01-06T14:08:00.188Z,1.50
2023-01-06T14:10:33.716Z,1.27
2023-01-06T14:13:02.067Z,1.60
2023-01-06T14:15:33.415Z,1.33
2023-01-06T14:18:01.215Z,1.50
2023-01-06T14:20:38.721Z,1.50
2023-01-06T14:23:14.902Z,1.60
2023-01-06T14:25:43.131Z,1.57
2023-01-06T14:28:22.338Z,1.50
2023-01-06T14:30:50.465Z,1.57
2023-01-06T14:33:32.467Z,1.60
2023-01-06T14:36:19.903Z,1.53
2023-01-06T14:38:52.499Z,1.33
2023-01-06T14:41:22.824Z,1.23
2023-01-06T14:44:16.455Z,1.77
2023-01-06T14:47:03.261Z,1.70
2023-01-06T14:50:02.963Z,1.50
2023-01-06T14:52:37.832Z,1.50
2023-01-06T14:55:09.210Z,1.53
2023-01-06T14:57:37.275Z,1.53
2023-01-06T15:00:07.503Z,1.43
2023-01-06T15:02:35.027Z,1.50
2023-01-06T15:05:02.744Z,1.30
2023-01-06T15:07:30.443Z,2.10
2023-01-06T15:10:13.816Z,1.37
2023-01-06T15:12:56.025Z,1.70
2023-01-06T15:15:28.277Z,1.60
2023-01-06T15:17:56.708Z,1.60
2023-01-06T15:20:34.890Z,1.37
2023-01-06T15:23:02.381Z,1.70
2023-01-06T15:25:32.581Z,1.40
2023-01-06T15:27:59.775Z,1.70
2023-01-06T15:30:28.450Z,1.73
2023-01-06T15:32:56.508Z,1.80
2023-01-06T15:35:26.136Z,1.63
2023-01-06T15:37:59.440Z,1.70
2023-01-06T15:40:27.248Z,2.00
2023-01-06T15:42:54.444Z,1.90
2023-01-06T15:45:33.246Z,1.70
2023-01-06T15:48:01.658Z,1.60
2023-01-06T15:50:31.704Z,1.73
2023-01-06T15:53:00.734Z,1.60
2023-01-06T15:55:30.209Z,1.53
2023-01-06T15:58:02.818Z,1.50
2023-01-06T16:00:31.863Z,1.23
2023-01-06T16:02:59.334Z,1.60
2023-01-06T16:05:38.202Z,1.70
2023-01-06T16:08:06.388Z,1.27
2023-01-06T16:10:37.527Z,1.20
2023-01-06T16:13:24.936Z,1.40
2023-01-06T16:15:55.861Z,1.40
2023-01-06T16:18:27.432Z,1.30
2023-01-06T16:20:54.826Z,1.30
2023-01-06T16:23:33.405Z,1.20
2023-01-06T16:26:15.523Z,1.30
2023-01-06T16:28:49.967Z,1.30
2023-01-06T16:31:36.265Z,1.50
2023-01-06T16:34:17.737Z,1.30
2023-01-06T16:36:45.097Z,1.77
2023-01-06T16:39:12.309Z,1.77
2023-01-06T16:41:39.523Z,1.70
2023-01-06T16:44:06.659Z,1.80
2023-01-06T16:46:33.952Z,1.60
2023-01-06T16:49:02.001Z,2.10
2023-01-06T16:51:29.764Z,1.97
2023-01-06T16:53:56.979Z,2.03
2023-01-06T16:56:24.201Z,1.87
2023-01-06T16:58:51.939Z,2.00
2023-01-06T17:01:20.759Z,2.10
2023-01-06T17:03:56.361Z,2.27
2023-01-06T17:06:25.855Z,2.40
2023-01-06T17:08:55.193Z,1.93
2023-01-06T17:11:24.249Z,2.20
2023-01-06T17:13:53.158Z,2.30
2023-01-06T17:16:26.868Z,2.03
2023-01-06T17:18:55.590Z,2.97
2023-01-06T17:21:24.742Z,2.37
2023-01-06T17:23:51.859Z,2.20
2023-01-06T17:26:20.342Z,2.40
2023-01-06T17:28:48.483Z,2.40
2023-01-06T17:31:16.899Z,2.87
2023-01-06T17:33:44.874Z,3.27
2023-01-06T17:36:19.312Z,2.60
2023-01-06T17:38:49.107Z,2.67
2023-01-06T17:41:17.501Z,2.57
2023-01-06T17:43:45.938Z,3.27
2023-01-06T17:46:36.791Z,2.50
2023-01-06T17:49:06.763Z,2.87
2023-01-06T17:51:33.924Z,2.90
2023-01-06T17:54:20.623Z,3.20
2023-01-06T17:56:47.974Z,2.80
2023-01-06T17:59:17.904Z,2.70
2023-01-06T18:01:45.149Z,3.00
2023-01-06T18:04:14.965Z,2.60
2023-01-06T18:06:52.550Z,2.70
2023-01-06T18:09:22.315Z,2.80
2023-01-06T18:11:50.675Z,3.07
2023-01-06T18:14:23.956Z,3.03
2023-01-06T18:16:54.171Z,3.50
2023-01-06T18:19:21.320Z,3.27
2023-01-06T18:21:49.789Z,3.20
2023-01-06T18:24:22.930Z,3.67
2023-01-06T18:26:51.641Z,3.13
2023-01-06T18:29:20.207Z,3.57
2023-01-06T18:31:48.475Z,3.50
2023-01-06T18:34:45.119Z,3.60
2023-01-06T18:37:12.262Z,4.20
2023-01-06T18:39:41.131Z,3.73
2023-01-06T18:42:16.241Z,4.10
2023-01-06T18:44:43.441Z,4.30
2023-01-06T18:47:22.206Z,3.80
2023-01-06T18:49:50.372Z,4.00
2023-01-06T18:52:40.786Z,3.83
2023-01-06T18:55:37.443Z,4.43
2023-01-06T18:58:21.775Z,4.37
2023-01-06T19:00:53.718Z,4.70
2023-01-06T19:03:32.243Z,5.27
2023-01-06T19:06:07.243Z,5.37
2023-01-06T19:08:35.531Z,5.00
2023-01-06T19:11:03.938Z,5.27
2023-01-06T19:13:32.204Z,5.20
2023-01-06T19:16:06.653Z,4.90
2023-01-06T19:18:35.004Z,5.10
2023-01-06T19:21:03.922Z,5.17
2023-01-06T19:23:32.633Z,4.50
2023-01-06T19:26:06.349Z,4.73
2023-01-06T19:28:36.977Z,4.53
2023-01-06T19:31:04.943Z,4.60
2023-01-06T19:33:41.263Z,4.93
2023-01-06T19:36:27.121Z,4.93
2023-01-06T19:38:54.392Z,5.17
2023-01-06T19:41:21.503Z,4.73
2023-01-06T19:43:48.863Z,4.83
2023-01-06T19:46:23.543Z,5.57
2023-01-06T19:48:51.182Z,5.23
2023-01-06T19:51:21.341Z,5.23
2023-01-06T19:53:53.279Z,5.37
2023-01-06T19:56:49.613Z,5.80
2023-01-06T19:59:21.922Z,7.03
2023-01-06T20:01:51.708Z,5.50
2023-01-06T20:04:24.981Z,6.40
2023-01-06T20:06:52.138Z,6.40
2023-01-06T20:09:21.652Z,6.33
2023-01-06T20:11:49.901Z,6.13
2023-01-06T20:14:17.105Z,7.70
2023-01-06T20:16:44.341Z,6.23
2023-01-06T20:19:11.625Z,6.97
2023-01-06T20:21:40.193Z,6.97
2023-01-06T20:24:17.084Z,6.83
2023-01-06T20:26:44.208Z,6.80
2023-01-06T20:29:11.448Z,11.70
2023-01-06T20:31:38.728Z,7.23
2023-01-06T20:34:06.213Z,7.23
2023-01-06T20:36:33.323Z,7.07
2023-01-06T20:39:00.575Z,7.47
2023-01-06T20:41:27.728Z,6.83
2023-01-06T20:43:54.910Z,6.77
2023-01-06T20:46:22.057Z,7.23
2023-01-06T20:48:49.337Z,7.27
2023-01-06T20:51:16.451Z,8.43
2023-01-06T20:53:43.629Z,6.90
2023-01-06T20:56:10.808Z,7.33
2023-01-06T20:58:37.958Z,7.47
2023-01-06T21:01:05.259Z,8.40
2023-01-06T21:03:32.478Z,8.07
2023-01-06T21:05:59.652Z,7.60
2023-01-06T21:08:26.774Z,7.20
2023-01-06T21:10:53.925Z,7.73
2023-01-06T21:13:24.010Z,7.50
2023-01-06T21:15:51.499Z,6.73
2023-01-06T21:18:18.662Z,7.90
2023-01-06T21:20:46.484Z,6.93
2023-01-06T21:23:13.686Z,6.87
2023-01-06T21:25:40.852Z,7.70
2023-01-06T21:28:08.148Z,6.90
2023-01-06T21:30:35.379Z,6.40
2023-01-06T21:33:02.571Z,7.17
2023-01-06T21:35:29.747Z,6.57
2023-01-06T21:37:56.911Z,7.30
2023-01-06T21:40:24.052Z,6.90
2023-01-06T21:43:09.688Z,6.73
2023-01-06T21:45:40.892Z,6.83
2023-01-06T21:48:08.647Z,7.07
2023-01-06T21:50:37.973Z,6.97
2023-01-06T21:53:05.362Z,5.93
2023-01-06T21:55:32.524Z,6.73
2023-01-06T21:57:59.902Z,6.17
2023-01-06T22:00:27.053Z,6.93
2023-01-06T22:02:54.292Z,6.00
2023-01-06T22:05:22.608Z,7.50
2023-01-06T22:07:51.331Z,6.70
2023-01-06T22:10:19.373Z,7.27
2023-01-06T22:12:47.360Z,6.90
2023-01-06T22:15:14.997Z,7.53
2023-01-06T22:17:42.568Z,7.43
2023-01-06T22:20:10.219Z,7.30
2023-01-06T22:22:37.459Z,6.83
2023-01-06T22:25:05.127Z,7.40
2023-01-06T22:27:32.315Z,7.40
2023-01-06T22:29:59.438Z,6.87
2023-01-06T22:32:28.211Z,7.00
2023-01-06T22:34:55.404Z,7.37
2023-01-06T22:37:22.540Z,7.60
2023-01-06T22:39:49.966Z,6.70
2023-01-06T22:42:17.143Z,6.70
2023-01-06T22:44:44.328Z,7.40
2023-01-06T22:47:11.463Z,6.77
2023-01-06T22:49:38.609Z,6.70
2023-01-06T22:52:05.748Z,8.07
2023-01-06T22:54:32.905Z,7.57
2023-01-06T22:57:00.044Z,7.30
2023-01-06T22:59:27.232Z,6.60
2023-01-06T23:01:54.468Z,6.77
2023-01-06T23:04:21.784Z,7.07
2023-01-06T23:06:49.182Z,6.80
2023-01-06T23:09:16.810Z,6.33
2023-01-06T23:11:44.030Z,7.13
2023-01-06T23:14:12.218Z,7.40
2023-01-06T23:16:40.501Z,8.07
2023-01-06T23:19:08.784Z,7.97
2023-01-06T23:21:36.036Z,6.87
2023-01-06T23:24:03.697Z,6.43
2023-01-06T23:26:34.049Z,6.03
2023-01-06T23:29:01.318Z,6.80
2023-01-06T23:31:30.225Z,7.40
2023-01-06T23:33:58.685Z,7.10
2023-01-06T23:36:27.514Z,6.90
2023-01-06T23:38:56.113Z,6.67
2023-01-06T23:41:24.798Z,7.23
2023-01-06T23:43:52.625Z,6.23
2023-01-06T23:46:20.997Z,6.83
2023-01-06T23:48:48.915Z,6.47
2023-01-06T23:51:16.857Z,6.03
2023-01-06T23:53:44.062Z,6.73
2023-01-06T23:56:18.816Z,7.33
2023-01-06T23:58:46.912Z,6.70
